Time;durP1;ratioP1;P1;durP2;ratioP2;P2;SDS_P1;SDS_P2;PMS_P1;PMS_P2;Temp;Humidity;BMP_temperature;BMP_pressure;BME280_temperature;BME280_humidity;BME280_pressure;Samples;Min_cycle;Max_cycle;Signal;HPM_P1;HPM_P2
2021/08/05 00:01:29;;;;;;;3.10;2.90;;;;;;;;;;5067555;28;20178;-80
2021/08/05 00:03:55;;;;;;;3.93;3.23;;;;;;;;;;5064630;28;20175;-79
2021/08/05 00:06:21;;;;;;;3.67;3.20;;;;;;;;;;5066786;28;20186;-79
2021/08/05 00:08:47;;;;;;;3.37;3.10;;;;;;;;;;5086373;28;20192;-80
2021/08/05 00:11:13;;;;;;;3.30;3.00;;;;;;;;;;5068616;28;20174;-79
2021/08/05 00:13:39;;;;;;;3.67;3.37;;;;;;;;;;5068476;28;20182;-80
2021/08/05 00:16:05;;;;;;;3.03;2.83;;;;;;;;;;5068343;28;20181;-80
2021/08/05 00:18:31;;;;;;;3.40;3.10;;;;;;;;;;5068325;28;20207;-80
2021/08/05 00:20:57;;;;;;;4.13;3.27;;;;;;;;;;5086853;28;20192;-80
2021/08/05 00:23:23;;;;;;;4.00;3.13;;;;;;;;;;5068137;28;20213;-80
2021/08/05 00:25:49;;;;;;;3.23;2.83;;;;;;;;;;5068722;28;20178;-80
2021/08/05 00:28:15;;;;;;;3.70;3.33;;;;;;;;;;5069377;28;20711;-80
2021/08/05 00:30:41;;;;;;;4.03;3.63;;;;;;;;;;5086293;28;20183;-80
2021/08/05 00:33:07;;;;;;;3.57;3.20;;;;;;;;;;5069196;28;20191;-80
2021/08/05 00:35:33;;;;;;;3.53;3.20;;;;;;;;;;5067194;28;20293;-79
2021/08/05 00:37:59;;;;;;;3.40;3.10;;;;;;;;;;5086054;28;20192;-80
2021/08/05 00:40:25;;;;;;;3.20;2.90;;;;;;;;;;5086848;28;20184;-79
2021/08/05 00:42:53;;;;;;;3.97;3.03;;;;;;;;;;5080720;28;20198;-80
2021/08/05 00:45:19;;;;;;;3.63;3.33;;;;;;;;;;5059496;28;20632;-80
2021/08/05 00:47:45;;;;;;;3.67;3.37;;;;;;;;;;5080024;28;20570;-79
2021/08/05 00:50:11;;;;;;;3.07;2.77;;;;;;;;;;5060644;28;20177;-80
2021/08/05 00:52:38;;;;;;;3.30;3.00;;;;;;;;;;5062339;28;20182;-79
2021/08/05 00:55:04;;;;;;;3.40;3.10;;;;;;;;;;5080953;28;20177;-79
2021/08/05 00:57:30;;;;;;;4.17;3.47;;;;;;;;;;5062347;28;20752;-80
2021/08/05 00:59:57;;;;;;;2.93;2.70;;;;;;;;;;5062731;28;20181;-79
2021/08/05 01:02:25;;;;;;;3.70;3.17;;;;;;;;;;5081657;28;20192;-79
2021/08/05 01:04:53;;;;;;;3.37;3.10;;;;;;;;;;5061811;28;20263;-79
2021/08/05 01:07:19;;;;;;;3.37;3.07;;;;;;;;;;5062309;28;20200;-79
2021/08/05 01:10:04;;;;;;;4.93;2.87;;;;;;;;;;5081582;28;20497;-80
2021/08/05 01:12:33;;;;;;;4.60;3.50;;;;;;;;;;5063145;28;20192;-79
2021/08/05 01:15:14;;;;;;;3.37;3.17;;;;;;;;;;5077299;28;20679;-78
2021/08/05 01:17:42;;;;;;;4.53;3.63;;;;;;;;;;5068672;28;20181;-79
2021/08/05 01:20:10;;;;;;;3.93;3.53;;;;;;;;;;5051967;28;20173;-79
2021/08/05 01:22:43;;;;;;;5.40;3.10;;;;;;;;;;5063609;28;20641;-79
2021/08/05 01:25:25;;;;;;;3.73;3.43;;;;;;;;;;5057270;28;20168;-78
2021/08/05 01:27:52;;;;;;;3.87;3.47;;;;;;;;;;5069299;28;20227;-79
2021/08/05 01:30:18;;;;;;;3.63;3.33;;;;;;;;;;5087017;28;20203;-79
2021/08/05 01:32:45;;;;;;;3.43;3.13;;;;;;;;;;5088868;28;20203;-79
2021/08/05 01:35:12;;;;;;;3.73;3.40;;;;;;;;;;5069991;28;20188;-79
2021/08/05 01:37:39;;;;;;;3.90;3.60;;;;;;;;;;5087692;28;20164;-79
2021/08/05 01:40:06;;;;;;;3.33;3.03;;;;;;;;;;5088777;28;20177;-79
2021/08/05 01:42:32;;;;;;;3.90;3.50;;;;;;;;;;5071372;28;20201;-78
2021/08/05 01:44:59;;;;;;;3.23;2.93;;;;;;;;;;5071314;28;20171;-79
2021/08/05 01:47:25;;;;;;;3.50;3.20;;;;;;;;;;5086095;28;20180;-79
2021/08/05 01:49:52;;;;;;;3.20;2.90;;;;;;;;;;5084231;28;20241;-79
2021/08/05 01:52:18;;;;;;;3.50;3.20;;;;;;;;;;5067981;28;20172;-79
2021/08/05 01:54:45;;;;;;;3.93;3.60;;;;;;;;;;5067080;28;20189;-80
2021/08/05 01:57:11;;;;;;;3.70;3.40;;;;;;;;;;5085822;28;20276;-79
2021/08/05 01:59:37;;;;;;;4.20;3.70;;;;;;;;;;5084584;28;20173;-79
2021/08/05 02:02:03;;;;;;;3.73;3.43;;;;;;;;;;5066557;28;20196;-80
2021/08/05 02:04:36;;;;;;;3.70;3.40;;;;;;;;;;5060241;28;20204;-80
2021/08/05 02:07:02;;;;;;;4.77;3.47;;;;;;;;;;5063703;28;20208;-79
2021/08/05 02:09:29;;;;;;;6.53;5.23;;;;;;;;;;5077908;28;20189;-79
2021/08/05 02:11:56;;;;;;;4.57;3.90;;;;;;;;;;5066555;28;20230;-80
2021/08/05 02:14:24;;;;;;;3.67;3.30;;;;;;;;;;5066552;28;20189;-79
2021/08/05 02:16:50;;;;;;;4.60;3.47;;;;;;;;;;5067518;28;20177;-80
2021/08/05 02:19:16;;;;;;;3.97;3.57;;;;;;;;;;5066546;28;20258;-79
2021/08/05 02:21:43;;;;;;;3.47;3.17;;;;;;;;;;5059059;28;20189;-80
2021/08/05 02:24:10;;;;;;;3.73;3.43;;;;;;;;;;5075144;28;20182;-80
2021/08/05 02:26:37;;;;;;;3.77;3.47;;;;;;;;;;5063977;28;20275;-79
2021/08/05 02:29:03;;;;;;;3.67;3.37;;;;;;;;;;5073965;28;20252;-79
2021/08/05 02:31:30;;;;;;;4.73;3.07;;;;;;;;;;5072565;28;20246;-79
2021/08/05 02:33:57;;;;;;;4.23;3.47;;;;;;;;;;5072740;28;20190;-79
2021/08/05 02:36:23;;;;;;;3.63;3.33;;;;;;;;;;5057860;28;20178;-80
2021/08/05 02:38:50;;;;;;;4.23;3.50;;;;;;;;;;5054787;28;20183;-79
2021/08/05 02:41:17;;;;;;;3.57;3.27;;;;;;;;;;5042340;28;20171;-79
2021/08/05 02:43:43;;;;;;;3.53;3.23;;;;;;;;;;5055525;28;20228;-79
2021/08/05 02:46:10;;;;;;;4.77;4.27;;;;;;;;;;5058665;28;20422;-79
2021/08/05 02:48:37;;;;;;;4.00;3.60;;;;;;;;;;5063785;28;20172;-80
2021/08/05 02:51:03;;;;;;;4.17;3.73;;;;;;;;;;5082075;28;20174;-79
2021/08/05 02:53:30;;;;;;;4.40;4.00;;;;;;;;;;5064597;28;20192;-80
2021/08/05 02:55:56;;;;;;;3.93;3.63;;;;;;;;;;5064393;28;20239;-79
2021/08/05 02:58:23;;;;;;;5.20;3.47;;;;;;;;;;5079753;28;20644;-80
2021/08/05 03:00:49;;;;;;;4.33;3.93;;;;;;;;;;5087077;28;20216;-79
2021/08/05 03:03:20;;;;;;;4.37;3.90;;;;;;;;;;5085695;28;20261;-79
2021/08/05 03:05:46;;;;;;;4.20;3.80;;;;;;;;;;5090480;28;20174;-80
2021/08/05 03:08:13;;;;;;;4.37;3.97;;;;;;;;;;5107673;28;20219;-80
2021/08/05 03:10:39;;;;;;;5.30;3.90;;;;;;;;;;5089449;28;20172;-80
2021/08/05 03:13:05;;;;;;;4.43;4.03;;;;;;;;;;5106539;28;20184;-79
2021/08/05 03:15:31;;;;;;;4.80;4.27;;;;;;;;;;5088000;28;20544;-79
2021/08/05 03:17:57;;;;;;;4.67;4.27;;;;;;;;;;5094761;28;20187;-79
2021/08/05 03:20:23;;;;;;;5.70;4.93;;;;;;;;;;5087102;28;20191;-79
2021/08/05 03:22:49;;;;;;;4.97;4.47;;;;;;;;;;5106564;28;20199;-79
2021/08/05 03:25:15;;;;;;;4.33;3.93;;;;;;;;;;5087467;28;20179;-79
2021/08/05 03:27:41;;;;;;;4.37;3.97;;;;;;;;;;5106221;28;20199;-79
2021/08/05 03:30:08;;;;;;;4.67;4.27;;;;;;;;;;5079724;28;20183;-79
2021/08/05 03:32:34;;;;;;;6.67;4.63;;;;;;;;;;5088075;28;20706;-79
2021/08/05 03:35:00;;;;;;;5.13;4.67;;;;;;;;;;5105423;28;20187;-80
2021/08/05 03:37:26;;;;;;;5.87;5.40;;;;;;;;;;5087236;28;20254;-79
2021/08/05 03:39:52;;;;;;;5.20;4.70;;;;;;;;;;5105704;28;20259;-79
2021/08/05 03:42:18;;;;;;;6.03;5.43;;;;;;;;;;5105114;28;20195;-78
2021/08/05 03:44:44;;;;;;;5.93;5.43;;;;;;;;;;5103463;28;20173;-79
2021/08/05 03:47:10;;;;;;;5.13;4.63;;;;;;;;;;5105528;28;20164;-79
2021/08/05 03:49:36;;;;;;;6.50;5.13;;;;;;;;;;5103581;28;20181;-79
2021/08/05 03:52:02;;;;;;;6.77;6.07;;;;;;;;;;5103965;28;20174;-79
2021/08/05 03:54:28;;;;;;;6.27;5.67;;;;;;;;;;5103925;28;20229;-79
2021/08/05 03:56:54;;;;;;;6.00;5.40;;;;;;;;;;5101847;28;20288;-79
2021/08/05 03:59:20;;;;;;;6.10;5.57;;;;;;;;;;5066050;28;20530;-79
2021/08/05 04:01:46;;;;;;;6.33;5.77;;;;;;;;;;5066011;28;20180;-79
2021/08/05 04:04:12;;;;;;;5.97;5.47;;;;;;;;;;5083485;28;20993;-79
2021/08/05 04:06:38;;;;;;;6.07;5.47;;;;;;;;;;5064432;28;20234;-78
2021/08/05 04:09:04;;;;;;;6.03;5.53;;;;;;;;;;5066152;28;20384;-78
2021/08/05 04:11:30;;;;;;;6.50;5.87;;;;;;;;;;5065395;28;20233;-79
2021/08/05 04:13:56;;;;;;;6.27;5.77;;;;;;;;;;5082768;28;20176;-79
2021/08/05 04:16:22;;;;;;;7.20;6.50;;;;;;;;;;5064249;28;20184;-79
2021/08/05 04:18:48;;;;;;;6.73;5.67;;;;;;;;;;5082869;28;20179;-79
2021/08/05 04:21:14;;;;;;;6.80;5.93;;;;;;;;;;5064564;28;20650;-79
2021/08/05 04:23:40;;;;;;;6.33;5.73;;;;;;;;;;5064493;28;20201;-79
2021/08/05 04:26:06;;;;;;;6.67;6.07;;;;;;;;;;5063046;28;20185;-79
2021/08/05 04:28:32;;;;;;;7.90;7.07;;;;;;;;;;5065362;28;20556;-79
2021/08/05 04:30:58;;;;;;;7.77;7.07;;;;;;;;;;5064368;28;20195;-79
2021/08/05 04:33:24;;;;;;;7.53;6.83;;;;;;;;;;5064382;28;20195;-79
2021/08/05 04:35:50;;;;;;;7.63;6.10;;;;;;;;;;5064085;28;20176;-79
2021/08/05 04:38:16;;;;;;;7.60;6.73;;;;;;;;;;5082157;28;20180;-79
2021/08/05 04:40:42;;;;;;;7.97;7.17;;;;;;;;;;5063986;28;20176;-79
2021/08/05 04:43:09;;;;;;;7.43;6.77;;;;;;;;;;5061477;28;20258;-79
2021/08/05 04:45:35;;;;;;;7.13;6.50;;;;;;;;;;5061701;28;20189;-79
2021/08/05 04:48:02;;;;;;;7.27;6.57;;;;;;;;;;5062313;28;20185;-79
2021/08/05 04:50:29;;;;;;;7.13;6.53;;;;;;;;;;5062296;28;20325;-78
2021/08/05 04:52:55;;;;;;;8.40;7.50;;;;;;;;;;5062363;28;20277;-78
2021/08/05 04:55:22;;;;;;;7.67;6.73;;;;;;;;;;5081179;28;20229;-79
2021/08/05 04:57:47;;;;;;;7.53;6.70;;;;;;;;;;5080501;28;20224;-79
2021/08/05 05:00:14;;;;;;;7.50;6.70;;;;;;;;;;5080234;28;20201;-79
2021/08/05 05:02:40;;;;;;;7.10;6.00;;;;;;;;;;5062252;28;20271;-79
2021/08/05 05:05:06;;;;;;;7.33;6.73;;;;;;;;;;5062045;28;20232;-79
2021/08/05 05:07:32;;;;;;;7.73;7.03;;;;;;;;;;5051889;28;20226;-79
2021/08/05 05:09:58;;;;;;;6.87;6.27;;;;;;;;;;5079789;28;20180;-78
2021/08/05 05:12:24;;;;;;;7.90;6.80;;;;;;;;;;5059973;28;20441;-79
2021/08/05 05:14:50;;;;;;;7.20;6.50;;;;;;;;;;5081218;28;20204;-79
2021/08/05 05:17:16;;;;;;;7.60;6.30;;;;;;;;;;5069833;28;20215;-80
2021/08/05 05:19:42;;;;;;;7.23;6.63;;;;;;;;;;5061928;28;20505;-79
2021/08/05 05:22:08;;;;;;;6.93;6.30;;;;;;;;;;5062575;28;20196;-79
2021/08/05 05:24:35;;;;;;;7.50;6.80;;;;;;;;;;5081645;28;20186;-80
2021/08/05 05:27:01;;;;;;;7.87;7.17;;;;;;;;;;5082507;28;20169;-80
2021/08/05 05:29:27;;;;;;;7.40;6.80;;;;;;;;;;5063654;28;20184;-78
2021/08/05 05:31:54;;;;;;;7.93;7.20;;;;;;;;;;5063267;28;20176;-80
2021/08/05 05:34:20;;;;;;;9.10;8.20;;;;;;;;;;5058683;28;20183;-79
2021/08/05 05:36:47;;;;;;;8.97;8.07;;;;;;;;;;5089040;28;20536;-79
2021/08/05 05:39:13;;;;;;;8.20;7.40;;;;;;;;;;5056955;28;20307;-79
2021/08/05 05:41:39;;;;;;;8.57;7.77;;;;;;;;;;5055405;28;20643;-79
2021/08/05 05:44:05;;;;;;;9.50;8.60;;;;;;;;;;5085282;28;20512;-79
2021/08/05 05:46:32;;;;;;;8.53;7.83;;;;;;;;;;5088598;28;20166;-79
2021/08/05 05:48:58;;;;;;;8.93;8.13;;;;;;;;;;5056857;28;20535;-78
2021/08/05 05:51:24;;;;;;;8.97;8.07;;;;;;;;;;5055096;28;20240;-78
2021/08/05 05:53:50;;;;;;;10.17;9.17;;;;;;;;;;5056640;28;20180;-79
2021/08/05 05:56:16;;;;;;;10.33;9.27;;;;;;;;;;5055341;28;20627;-79
2021/08/05 05:58:42;;;;;;;10.87;9.77;;;;;;;;;;5075029;28;20227;-79
2021/08/05 06:01:08;;;;;;;9.47;8.57;;;;;;;;;;5075510;28;20945;-78
2021/08/05 06:03:34;;;;;;;10.13;9.23;;;;;;;;;;5059749;28;20251;-79
2021/08/05 06:06:00;;;;;;;11.30;10.20;;;;;;;;;;5058218;28;21767;-79
2021/08/05 06:08:26;;;;;;;10.07;9.17;;;;;;;;;;5092894;28;20172;-79
2021/08/05 06:10:52;;;;;;;10.70;9.37;;;;;;;;;;5060475;28;20184;-79
2021/08/05 06:13:18;;;;;;;10.57;9.67;;;;;;;;;;5078444;28;20180;-79
2021/08/05 06:15:44;;;;;;;11.20;10.20;;;;;;;;;;5079730;28;20221;-79
2021/08/05 06:18:10;;;;;;;10.87;9.80;;;;;;;;;;5079846;28;20517;-79
2021/08/05 06:20:36;;;;;;;11.00;10.00;;;;;;;;;;5057176;28;20257;-79
2021/08/05 06:23:03;;;;;;;11.60;10.50;;;;;;;;;;5057656;28;20544;-78
2021/08/05 06:25:29;;;;;;;11.07;9.97;;;;;;;;;;5059408;28;20275;-78
2021/08/05 06:27:55;;;;;;;12.43;11.33;;;;;;;;;;5059737;28;20172;-79
2021/08/05 06:30:22;;;;;;;10.47;9.47;;;;;;;;;;5077916;28;20177;-78
2021/08/05 06:32:50;;;;;;;11.60;10.57;;;;;;;;;;5052114;28;20173;-79
2021/08/05 06:35:17;;;;;;;12.00;10.60;;;;;;;;;;5077052;28;20184;-79
2021/08/05 06:37:43;;;;;;;12.30;11.10;;;;;;;;;;5058924;28;20172;-79
2021/08/05 06:40:09;;;;;;;13.67;11.53;;;;;;;;;;5059154;28;20212;-79
2021/08/05 06:42:36;;;;;;;13.57;12.27;;;;;;;;;;5081266;28;20208;-79
2021/08/05 06:45:02;;;;;;;13.07;11.77;;;;;;;;;;5074546;28;20300;-83
2021/08/05 06:47:29;;;;;;;12.27;11.00;;;;;;;;;;5069535;28;20279;-82
2021/08/05 06:49:57;;;;;;;12.00;10.80;;;;;;;;;;5049093;28;20180;-82
2021/08/05 06:52:23;;;;;;;12.67;11.33;;;;;;;;;;5071423;28;21937;-83
2021/08/05 06:54:49;;;;;;;12.57;11.37;;;;;;;;;;5054746;28;20184;-83
2021/08/05 06:57:16;;;;;;;12.50;11.30;;;;;;;;;;5060739;28;20288;-83
2021/08/05 06:59:42;;;;;;;12.80;11.53;;;;;;;;;;5093252;28;20291;-83
2021/08/05 07:02:08;;;;;;;13.10;11.90;;;;;;;;;;5110303;28;20615;-83
2021/08/05 07:04:34;;;;;;;13.17;11.87;;;;;;;;;;5055989;28;20491;-83
2021/08/05 07:07:00;;;;;;;13.77;12.43;;;;;;;;;;5084818;28;20187;-83
2021/08/05 07:09:26;;;;;;;12.27;11.00;;;;;;;;;;5076527;28;20175;-82
2021/08/05 07:11:52;;;;;;;13.00;11.70;;;;;;;;;;5109713;28;20188;-82
2021/08/05 07:14:18;;;;;;;12.37;11.07;;;;;;;;;;5076161;28;20478;-83
2021/08/05 07:16:44;;;;;;;12.53;11.43;;;;;;;;;;5092828;28;20186;-83
2021/08/05 07:19:10;;;;;;;12.40;11.20;;;;;;;;;;5108677;28;20935;-83
2021/08/05 07:21:36;;;;;;;13.03;11.83;;;;;;;;;;5092194;28;20225;-83
2021/08/05 07:24:02;;;;;;;14.20;11.33;;;;;;;;;;5076023;28;20176;-83
2021/08/05 07:26:28;;;;;;;12.20;11.00;;;;;;;;;;5074682;28;20214;-83
2021/08/05 07:28:54;;;;;;;12.23;11.10;;;;;;;;;;5075132;28;20187;-83
2021/08/05 07:31:21;;;;;;;13.47;12.17;;;;;;;;;;5072553;28;20176;-79
2021/08/05 07:33:49;;;;;;;13.60;12.30;;;;;;;;;;5106793;28;20195;-79
2021/08/05 07:36:16;;;;;;;14.33;11.87;;;;;;;;;;5072707;28;20336;-79
2021/08/05 07:38:42;;;;;;;14.27;12.93;;;;;;;;;;5078973;28;20208;-78
2021/08/05 07:41:08;;;;;;;14.43;12.93;;;;;;;;;;5091529;28;20168;-80
2021/08/05 07:43:34;;;;;;;14.50;13.10;;;;;;;;;;5089424;28;20200;-79
2021/08/05 07:46:00;;;;;;;16.50;14.90;;;;;;;;;;5092754;28;20168;-79
2021/08/05 07:48:26;;;;;;;15.17;13.00;;;;;;;;;;5077007;28;20172;-80
2021/08/05 07:50:52;;;;;;;14.10;12.80;;;;;;;;;;5076301;28;20241;-80
2021/08/05 07:53:18;;;;;;;15.07;13.70;;;;;;;;;;5076901;28;20195;-79
2021/08/05 07:55:45;;;;;;;18.27;16.63;;;;;;;;;;5075734;28;20421;-79
2021/08/05 07:58:11;;;;;;;17.50;15.90;;;;;;;;;;5073196;28;20239;-78
2021/08/05 08:00:37;;;;;;;17.37;15.63;;;;;;;;;;5090412;28;20293;-79
2021/08/05 08:03:03;;;;;;;17.87;16.27;;;;;;;;;;5076333;28;20211;-79
2021/08/05 08:05:30;;;;;;;18.27;16.53;;;;;;;;;;5076366;28;20511;-79
2021/08/05 08:07:56;;;;;;;16.87;15.20;;;;;;;;;;5094459;28;20241;-79
2021/08/05 08:10:22;;;;;;;16.27;14.80;;;;;;;;;;5094465;28;20209;-79
2021/08/05 08:12:48;;;;;;;16.47;14.77;;;;;;;;;;5076420;28;20172;-79
2021/08/05 08:15:14;;;;;;;16.37;14.87;;;;;;;;;;5095087;28;20182;-79
2021/08/05 08:17:40;;;;;;;15.33;13.93;;;;;;;;;;5109761;28;20267;-80
2021/08/05 08:20:09;;;;;;;16.67;15.00;;;;;;;;;;5109575;28;20187;-79
2021/08/05 08:22:35;;;;;;;17.10;15.60;;;;;;;;;;5110549;28;20261;-81
2021/08/05 08:25:02;;;;;;;18.20;16.17;;;;;;;;;;5110240;28;20258;-81
2021/08/05 08:27:28;;;;;;;17.37;15.63;;;;;;;;;;5061497;28;20178;-80
2021/08/05 08:29:54;;;;;;;17.80;16.10;;;;;;;;;;5076231;28;20268;-80
2021/08/05 08:32:20;;;;;;;17.03;15.43;;;;;;;;;;5094863;28;20211;-80
2021/08/05 08:34:46;;;;;;;16.90;15.30;;;;;;;;;;5096676;28;20194;-78
2021/08/05 08:37:12;;;;;;;17.40;15.80;;;;;;;;;;5101975;28;20637;-79
2021/08/05 08:39:38;;;;;;;16.37;14.87;;;;;;;;;;5083701;28;20184;-79
2021/08/05 08:42:04;;;;;;;15.33;13.87;;;;;;;;;;5101358;28;20220;-79
2021/08/05 08:44:30;;;;;;;16.97;14.63;;;;;;;;;;5116972;28;20203;-79
2021/08/05 08:46:56;;;;;;;16.50;14.97;;;;;;;;;;5082976;28;20178;-79
2021/08/05 08:49:26;;;;;;;15.53;14.17;;;;;;;;;;5100317;28;20183;-80
2021/08/05 08:51:53;;;;;;;15.97;14.27;;;;;;;;;;5099411;28;20628;-80
2021/08/05 08:54:19;;;;;;;18.03;15.93;;;;;;;;;;5077638;28;20174;-79
2021/08/05 08:56:47;;;;;;;16.90;15.23;;;;;;;;;;5069029;28;20189;-80
2021/08/05 08:59:13;;;;;;;15.40;13.97;;;;;;;;;;5099371;28;20272;-79
2021/08/05 09:01:40;;;;;;;15.30;13.73;;;;;;;;;;5090758;28;20174;-79
2021/08/05 09:04:09;;;;;;;15.57;13.97;;;;;;;;;;5068727;28;20235;-79
2021/08/05 09:06:35;;;;;;;16.17;14.47;;;;;;;;;;5068801;28;20762;-79
2021/08/05 09:09:02;;;;;;;16.47;14.93;;;;;;;;;;5069861;28;20208;-78
2021/08/05 09:11:28;;;;;;;17.40;15.90;;;;;;;;;;5059779;28;20681;-79
2021/08/05 09:13:54;;;;;;;16.30;14.63;;;;;;;;;;5061037;28;20249;-79
2021/08/05 09:16:21;;;;;;;16.53;14.90;;;;;;;;;;5060915;28;20196;-79
2021/08/05 09:18:47;;;;;;;17.33;15.53;;;;;;;;;;5079964;28;20177;-80
2021/08/05 09:21:18;;;;;;;17.10;15.50;;;;;;;;;;5061695;28;20320;-79
2021/08/05 09:23:48;;;;;;;15.97;14.47;;;;;;;;;;5059898;28;20197;-79
2021/08/05 09:26:31;;;;;;;16.33;14.83;;;;;;;;;;5054359;28;20173;-79
2021/08/05 09:29:01;;;;;;;18.13;16.23;;;;;;;;;;5076949;28;20196;-79
2021/08/05 09:31:27;;;;;;;19.97;18.00;;;;;;;;;;5056703;28;20161;-78
2021/08/05 09:34:00;;;;;;;19.73;17.67;;;;;;;;;;5080019;28;20216;-80
2021/08/05 09:36:27;;;;;;;19.57;17.63;;;;;;;;;;5076098;28;20228;-80
2021/08/05 09:38:54;;;;;;;20.47;17.67;;;;;;;;;;5057853;28;20184;-79
2021/08/05 09:41:20;;;;;;;20.33;16.63;;;;;;;;;;5061449;28;20730;-79
2021/08/05 09:43:46;;;;;;;18.20;16.43;;;;;;;;;;5075543;28;20655;-80
2021/08/05 09:46:13;;;;;;;18.80;17.07;;;;;;;;;;5057387;28;20286;-79
2021/08/05 09:48:43;;;;;;;19.47;17.43;;;;;;;;;;5071762;28;20185;-79
2021/08/05 09:51:12;;;;;;;18.80;16.60;;;;;;;;;;5073978;28;20274;-79
2021/08/05 09:53:56;;;;;;;19.83;17.83;;;;;;;;;;5058528;28;20182;-78
2021/08/05 09:56:23;;;;;;;19.37;17.50;;;;;;;;;;5083420;28;20213;-79
2021/08/05 09:58:50;;;;;;;19.07;16.63;;;;;;;;;;5075805;28;20223;-79
2021/08/05 10:01:16;;;;;;;18.40;16.70;;;;;;;;;;5075424;28;20199;-79
2021/08/05 10:03:43;;;;;;;19.40;17.40;;;;;;;;;;5076743;28;20204;-79
2021/08/05 10:06:09;;;;;;;18.10;16.33;;;;;;;;;;5077284;28;20577;-79
2021/08/05 10:08:44;;;;;;;18.60;16.70;;;;;;;;;;5076834;28;20230;-79
2021/08/05 10:11:10;;;;;;;24.57;22.07;;;;;;;;;;5093308;28;20184;-77
2021/08/05 10:13:37;;;;;;;24.50;22.10;;;;;;;;;;5070820;28;20199;-78
2021/08/05 10:16:05;;;;;;;25.03;22.33;;;;;;;;;;5062672;28;20181;-78
2021/08/05 10:18:32;;;;;;;23.27;20.97;;;;;;;;;;5087330;28;20217;-77
2021/08/05 10:20:59;;;;;;;22.23;20.13;;;;;;;;;;5071032;28;20181;-77
2021/08/05 10:23:26;;;;;;;24.03;21.63;;;;;;;;;;5090447;28;20197;-78
2021/08/05 10:25:54;;;;;;;25.43;23.03;;;;;;;;;;5073787;28;20171;-77
2021/08/05 10:28:20;;;;;;;25.33;22.37;;;;;;;;;;5073456;28;20196;-78
2021/08/05 10:30:47;;;;;;;20.37;18.43;;;;;;;;;;5091774;28;20180;-78
2021/08/05 10:33:13;;;;;;;20.47;18.40;;;;;;;;;;5088020;28;20175;-77
2021/08/05 10:35:39;;;;;;;23.43;20.90;;;;;;;;;;5067644;28;20181;-76
2021/08/05 10:38:05;;;;;;;22.80;20.40;;;;;;;;;;5069725;28;20192;-77
2021/08/05 10:40:32;;;;;;;21.50;19.37;;;;;;;;;;5088454;28;20633;-77
2021/08/05 10:42:59;;;;;;;20.90;18.87;;;;;;;;;;5087582;28;20251;-77
2021/08/05 10:45:26;;;;;;;21.70;19.50;;;;;;;;;;5088645;28;20178;-77
2021/08/05 10:47:53;;;;;;;24.10;21.70;;;;;;;;;;5069925;28;20305;-77
2021/08/05 10:50:21;;;;;;;23.10;20.30;;;;;;;;;;5069005;28;20412;-76
2021/08/05 10:52:55;;;;;;;21.83;19.77;;;;;;;;;;5070640;28;20197;-77
2021/08/05 10:55:26;;;;;;;21.63;19.63;;;;;;;;;;5062717;28;20484;-76
2021/08/05 10:58:11;;;;;;;20.37;18.47;;;;;;;;;;5070737;28;20225;-77
2021/08/05 11:00:58;;;;;;;20.97;18.80;;;;;;;;;;5084349;28;20189;-77
2021/08/05 11:03:46;;;;;;;20.50;18.70;;;;;;;;;;5066773;28;20209;-78
2021/08/05 11:06:24;;;;;;;21.67;19.57;;;;;;;;;;5076894;28;20285;-78
2021/08/05 11:08:50;;;;;;;17.07;15.27;;;;;;;;;;5080350;28;20542;-78
2021/08/05 11:11:23;;;;;;;18.63;13.77;;;;;;;;;;5092582;28;20184;-78
2021/08/05 11:13:55;;;;;;;14.93;11.83;;;;;;;;;;5073499;28;20180;-78
2021/08/05 11:16:40;;;;;;;14.03;12.73;;;;;;;;;;5089055;28;20687;-78
2021/08/05 11:19:21;;;;;;;11.43;10.33;;;;;;;;;;5090872;28;20184;-78
2021/08/05 11:21:47;;;;;;;9.43;8.53;;;;;;;;;;5098414;28;20263;-78
2021/08/05 11:24:32;;;;;;;8.37;7.67;;;;;;;;;;5077922;28;20187;-78
2021/08/05 11:27:11;;;;;;;11.67;9.07;;;;;;;;;;5095893;28;20195;-78
2021/08/05 11:29:37;;;;;;;8.27;6.87;;;;;;;;;;5097314;28;20232;-78
2021/08/05 11:32:22;;;;;;;10.27;9.27;;;;;;;;;;5098057;28;20184;-78
2021/08/05 11:34:55;;;;;;;7.57;6.60;;;;;;;;;;5094689;28;20188;-78
2021/08/05 11:37:21;;;;;;;8.73;8.03;;;;;;;;;;5078406;28;20244;-78
2021/08/05 11:39:51;;;;;;;6.70;6.03;;;;;;;;;;5076367;28;20580;-77
2021/08/05 11:42:18;;;;;;;6.00;5.50;;;;;;;;;;5070629;28;20208;-78
2021/08/05 11:44:49;;;;;;;7.93;6.70;;;;;;;;;;5074248;28;20172;-77
2021/08/05 11:47:19;;;;;;;7.77;6.27;;;;;;;;;;5070140;28;20290;-77
2021/08/05 11:49:48;;;;;;;6.23;4.97;;;;;;;;;;5089979;28;20789;-77
2021/08/05 11:52:21;;;;;;;47.87;10.97;;;;;;;;;;5095837;28;20489;-78
2021/08/05 11:54:52;;;;;;;7.63;6.03;;;;;;;;;;5095532;28;20190;-78
2021/08/05 11:57:20;;;;;;;13.57;7.10;;;;;;;;;;5086501;28;20299;-78
2021/08/05 11:59:48;;;;;;;7.67;6.20;;;;;;;;;;5058127;28;20199;-79
2021/08/05 12:02:21;;;;;;;16.13;7.00;;;;;;;;;;5076956;28;20197;-78
2021/08/05 12:04:47;;;;;;;6.00;5.10;;;;;;;;;;5052991;28;20182;-79
2021/08/05 12:07:23;;;;;;;4.77;4.37;;;;;;;;;;5076018;28;20203;-78
2021/08/05 12:09:54;;;;;;;6.57;4.97;;;;;;;;;;5074074;28;20196;-79
2021/08/05 12:12:20;;;;;;;5.77;5.17;;;;;;;;;;5074054;28;20295;-79
2021/08/05 12:14:57;;;;;;;7.70;6.07;;;;;;;;;;5073469;28;20175;-78
2021/08/05 12:17:33;;;;;;;6.30;5.70;;;;;;;;;;5055788;28;20194;-77
2021/08/05 12:20:00;;;;;;;5.37;4.87;;;;;;;;;;5072666;28;20176;-79
2021/08/05 12:22:34;;;;;;;5.07;4.67;;;;;;;;;;5054065;28;20242;-78
2021/08/05 12:25:04;;;;;;;6.53;5.93;;;;;;;;;;5072410;28;20156;-78
2021/08/05 12:27:31;;;;;;;6.30;5.70;;;;;;;;;;5054722;28;20181;-79
2021/08/05 12:29:58;;;;;;;5.23;4.73;;;;;;;;;;5058032;28;20177;-78
2021/08/05 12:32:24;;;;;;;7.27;5.87;;;;;;;;;;5066160;28;20184;-78
2021/08/05 12:34:50;;;;;;;7.87;6.17;;;;;;;;;;5070695;28;20181;-78
2021/08/05 12:37:17;;;;;;;6.90;6.20;;;;;;;;;;5087981;28;20193;-78
2021/08/05 12:39:43;;;;;;;5.37;4.67;;;;;;;;;;5074200;28;20184;-80
2021/08/05 12:42:10;;;;;;;6.43;5.87;;;;;;;;;;5074145;28;20186;-78
2021/08/05 12:44:36;;;;;;;7.23;6.47;;;;;;;;;;5078982;28;20276;-79
2021/08/05 12:47:04;;;;;;;6.10;5.60;;;;;;;;;;5083406;28;20169;-79
2021/08/05 12:49:37;;;;;;;8.63;5.93;;;;;;;;;;5068294;28;20531;-78
2021/08/05 12:52:04;;;;;;;6.33;5.47;;;;;;;;;;5089096;28;20755;-79
2021/08/05 12:54:31;;;;;;;6.47;5.10;;;;;;;;;;5056122;28;20643;-78
2021/08/05 12:56:58;;;;;;;5.77;5.00;;;;;;;;;;5077363;28;20223;-77
2021/08/05 12:59:59;;;;;;;5.67;5.17;;;;;;;;;;5076277;28;20825;-79
2021/08/05 13:02:25;;;;;;;5.73;5.23;;;;;;;;;;5031108;28;20788;-79
2021/08/05 13:05:06;;;;;;;6.43;5.83;;;;;;;;;;5062798;28;20187;-80
2021/08/05 13:07:43;;;;;;;4.90;4.50;;;;;;;;;;5075390;28;20287;-78
2021/08/05 13:10:09;;;;;;;5.87;4.53;;;;;;;;;;5074622;28;20171;-77
2021/08/05 13:12:35;;;;;;;6.20;5.70;;;;;;;;;;5107311;28;20217;-77
2021/08/05 13:15:34;;;;;;;5.30;4.80;;;;;;;;;;5107560;28;20240;-79
2021/08/05 13:18:01;;;;;;;5.37;4.87;;;;;;;;;;5049154;28;20201;-78
2021/08/05 13:20:28;;;;;;;5.57;5.07;;;;;;;;;;5073087;28;20172;-78
2021/08/05 13:22:55;;;;;;;8.73;5.30;;;;;;;;;;5091706;28;20307;-78
2021/08/05 13:25:22;;;;;;;6.30;5.70;;;;;;;;;;5092568;28;20175;-79
2021/08/05 13:28:07;;;;;;;5.57;5.07;;;;;;;;;;5074884;28;20172;-78
2021/08/05 13:30:33;;;;;;;5.20;4.70;;;;;;;;;;5073264;28;20176;-78
2021/08/05 13:32:59;;;;;;;4.67;4.27;;;;;;;;;;5091701;28;20249;-78
2021/08/05 13:35:25;;;;;;;5.87;5.37;;;;;;;;;;5090807;28;20179;-78
2021/08/05 13:37:59;;;;;;;4.70;4.40;;;;;;;;;;5086301;28;20227;-78
2021/08/05 13:40:25;;;;;;;5.55;5.05;;;;;;;;;;5073295;28;20432;-78
2021/08/05 13:42:51;;;;;;;4.63;4.23;;;;;;;;;;5088752;28;20196;-79
2021/08/05 13:45:18;;;;;;;5.73;4.90;;;;;;;;;;5090510;28;20200;-79
2021/08/05 13:47:44;;;;;;;4.77;4.37;;;;;;;;;;5092199;28;20260;-79
2021/08/05 13:50:27;;;;;;;5.27;4.77;;;;;;;;;;5090566;28;20191;-78
2021/08/05 13:53:01;;;;;;;4.13;3.83;;;;;;;;;;5073309;28;20234;-79
2021/08/05 13:55:28;;;;;;;6.63;3.77;;;;;;;;;;5085421;28;20181;-78
2021/08/05 13:57:54;;;;;;;4.37;3.97;;;;;;;;;;5062201;28;20229;-77
2021/08/05 14:00:21;;;;;;;4.30;4.00;;;;;;;;;;5052746;28;20184;-78
2021/08/05 14:02:48;;;;;;;4.07;3.67;;;;;;;;;;5054301;28;20193;-78
2021/08/05 14:05:15;;;;;;;5.03;4.33;;;;;;;;;;5071900;28;20543;-79
2021/08/05 14:07:41;;;;;;;4.77;4.30;;;;;;;;;;5088247;28;20193;-79
2021/08/05 14:10:08;;;;;;;4.40;4.00;;;;;;;;;;5071510;28;20188;-79
2021/08/05 14:12:36;;;;;;;4.13;3.70;;;;;;;;;;5054220;28;20666;-79
2021/08/05 14:15:02;;;;;;;3.90;3.60;;;;;;;;;;5056114;28;20180;-79
2021/08/05 14:17:28;;;;;;;5.70;4.20;;;;;;;;;;5072251;28;20244;-80
2021/08/05 14:19:54;;;;;;;4.00;3.63;;;;;;;;;;5053855;28;20263;-79
2021/08/05 14:22:20;;;;;;;4.13;3.63;;;;;;;;;;5065155;28;20285;-79
2021/08/05 14:24:46;;;;;;;3.87;3.57;;;;;;;;;;5073392;28;20231;-78
2021/08/05 14:27:15;;;;;;;3.80;3.50;;;;;;;;;;5073062;28;20169;-87
2021/08/05 14:29:41;;;;;;;5.30;3.97;;;;;;;;;;5055959;28;20182;-84
2021/08/05 14:32:08;;;;;;;6.63;3.87;;;;;;;;;;5054705;28;20610;-82
2021/08/05 14:34:34;;;;;;;4.07;3.73;;;;;;;;;;5054534;28;20170;-80
2021/08/05 14:37:00;;;;;;;6.20;3.63;;;;;;;;;;5053292;28;20192;-79